createdAt,value
2016-04-23T00:00:48.372Z,6.06
2016-04-23T00:01:48.407Z,6.09
2016-04-23T00:02:48.378Z,6.11
2016-04-23T00:04:02.165Z,6.12
2016-04-23T00:04:48.383Z,6.08
2016-04-23T00:05:48.402Z,6.09
2016-04-23T00:06:48.608Z,6.04
2016-04-23T00:07:47.923Z,6.03
2016-04-23T00:08:48.269Z,6
2016-04-23T00:09:48.787Z,5.96
2016-04-23T00:11:48.215Z,5.86
2016-04-23T00:12:48.609Z,5.79
2016-04-23T00:13:48.376Z,5.85
2016-04-23T00:14:48.395Z,5.85
2016-04-23T00:15:48.554Z,5.76
2016-04-23T00:16:48.415Z,5.82
2016-04-23T00:17:48.356Z,5.74
2016-04-23T00:18:48.359Z,5.81
2016-04-23T00:19:48.784Z,5.74
2016-04-23T00:20:48.364Z,5.68
2016-04-23T00:21:48.351Z,5.72
2016-04-23T00:22:48.776Z,5.67
2016-04-23T00:23:48.778Z,5.64
2016-04-23T00:24:48.375Z,5.68
2016-04-23T00:25:48.347Z,5.68
2016-04-23T00:26:48.349Z,5.68
2016-04-23T00:28:02.652Z,5.65
2016-04-23T00:28:48.386Z,5.58
2016-04-23T00:30:02.875Z,5.58
2016-04-23T00:30:48.344Z,5.57
2016-04-23T00:31:48.535Z,5.57
2016-04-23T00:32:48.600Z,5.63
2016-04-23T00:33:48.540Z,5.57
2016-04-23T00:34:48.574Z,5.54
2016-04-23T00:35:48.546Z,5.68
2016-04-23T00:36:48.360Z,5.54
2016-04-23T00:37:48.379Z,5.53
2016-04-23T00:38:48.350Z,5.49
2016-04-23T00:40:02.637Z,5.54
2016-04-23T00:41:02.843Z,5.54
2016-04-23T00:41:48.343Z,5.51
2016-04-23T00:43:02.629Z,5.56
2016-04-23T00:43:48.332Z,5.57
2016-04-23T00:45:02.432Z,5.54
2016-04-23T00:45:48.323Z,5.57
2016-04-23T00:46:48.543Z,5.65
2016-04-23T00:47:47.843Z,5.51
2016-04-23T00:48:48.534Z,5.57
2016-04-23T00:49:48.348Z,5.51
2016-04-23T00:50:48.726Z,5.64
2016-04-23T00:51:48.322Z,5.53
2016-04-23T00:52:48.342Z,5.53
2016-04-23T00:53:48.781Z,5.53
2016-04-23T00:54:48.347Z,5.51
2016-04-23T00:55:48.302Z,5.51
2016-04-23T00:56:48.305Z,5.45
2016-04-23T00:57:48.292Z,5.43
2016-04-23T00:58:48.310Z,5.48
2016-04-23T00:59:49.125Z,5.49
2016-04-23T01:00:48.331Z,5.46
2016-04-23T01:01:48.319Z,5.36
2016-04-23T01:02:48.289Z,5.35
2016-04-23T01:03:48.291Z,5.4
2016-04-23T01:04:48.310Z,5.35
2016-04-23T01:05:48.517Z,5.33
2016-04-23T01:06:48.300Z,5.35
2016-04-23T01:08:02.416Z,5.3
2016-04-23T01:08:48.494Z,5.28
2016-04-23T01:09:48.324Z,5.28
2016-04-23T01:10:48.499Z,5.28
2016-04-23T01:11:48.001Z,5.3
2016-04-23T01:12:48.505Z,5.33
2016-04-23T01:15:02.371Z,5.21
2016-04-23T01:16:48.295Z,5.22
2016-04-23T01:17:48.299Z,5.2
2016-04-23T01:18:48.348Z,5.24
2016-04-23T01:19:48.351Z,5.27
2016-04-23T01:20:48.510Z,5.22
2016-04-23T01:21:48.279Z,5.22
2016-04-23T01:22:48.281Z,5.18
2016-04-23T01:24:02.412Z,5.2
2016-04-23T01:24:49.099Z,5.06
2016-04-23T01:25:48.289Z,5.07
2016-04-23T01:26:48.261Z,5.03
2016-04-23T01:27:48.278Z,5
2016-04-23T01:28:48.281Z,5.04
2016-04-23T01:29:48.284Z,5.03
2016-04-23T01:30:48.536Z,5
2016-04-23T01:32:03.386Z,5.03
2016-04-23T01:32:48.308Z,5.02
2016-04-23T01:33:48.467Z,4.96
2016-04-23T01:34:48.454Z,4.92
2016-04-23T01:35:48.457Z,4.94
2016-04-23T01:36:48.256Z,4.94
2016-04-23T01:39:02.343Z,4.96
2016-04-23T01:39:48.280Z,4.96
2016-04-23T01:40:48.251Z,4.96
2016-04-23T01:41:48.254Z,4.92
2016-04-23T01:42:48.491Z,4.92
2016-04-23T01:44:48.231Z,4.96
2016-04-23T01:45:48.249Z,4.99
2016-04-23T01:46:48.299Z,5.06
2016-04-23T01:47:48.254Z,5.02
2016-04-23T01:48:48.242Z,4.94
2016-04-23T01:49:48.479Z,5
2016-04-23T01:50:48.465Z,4.91
2016-04-23T01:51:48.437Z,4.97
2016-04-23T01:52:48.423Z,4.91
2016-04-23T01:53:48.271Z,4.99
2016-04-23T01:54:48.226Z,4.94
2016-04-23T01:55:47.791Z,4.82
2016-04-23T01:56:48.451Z,4.91
2016-04-23T01:57:48.234Z,4.85
2016-04-23T01:58:48.222Z,4.86
2016-04-23T01:59:48.255Z,4.86
2016-04-23T02:00:48.837Z,4.88
2016-04-23T02:01:48.448Z,4.8
2016-04-23T02:03:02.782Z,4.72
2016-04-23T02:03:47.719Z,4.85
2016-04-23T02:04:48.409Z,4.78
2016-04-23T02:06:47.915Z,4.73
2016-04-23T02:07:48.199Z,4.77
2016-04-23T02:08:47.780Z,4.77
2016-04-23T02:09:49.033Z,4.77
2016-04-23T02:10:48.254Z,4.7
2016-04-23T02:11:47.443Z,4.73
2016-04-23T02:13:48.809Z,4.75
2016-04-23T02:14:47.733Z,4.8
2016-04-23T02:15:48.235Z,4.75
2016-04-23T02:16:47.738Z,4.8
2016-04-23T02:17:48.210Z,4.78
2016-04-23T02:18:48.181Z,4.73
2016-04-23T02:19:48.371Z,4.78
2016-04-23T02:20:48.406Z,4.75
2016-04-23T02:21:48.206Z,4.82
2016-04-23T02:22:48.233Z,4.69
2016-04-23T02:23:48.173Z,4.75
2016-04-23T02:24:48.380Z,4.77
2016-04-23T02:25:48.163Z,4.75
2016-04-23T02:26:48.572Z,4.7
2016-04-23T02:27:48.168Z,4.67
2016-04-23T02:28:48.172Z,4.77
2016-04-23T02:29:47.908Z,4.7
2016-04-23T02:30:48.583Z,4.66
2016-04-23T02:31:48.399Z,4.63
2016-04-23T02:32:48.197Z,4.66
2016-04-23T02:33:48.138Z,4.66
2016-04-23T02:34:48.374Z,4.66
2016-04-23T02:35:48.143Z,4.63
2016-04-23T02:37:02.243Z,4.67
2016-04-23T02:37:48.540Z,4.65
2016-04-23T02:38:48.135Z,4.63
2016-04-23T02:39:48.138Z,4.6
2016-04-23T02:40:48.126Z,4.66
2016-04-23T02:42:48.178Z,4.67
2016-04-23T02:43:48.165Z,4.62
2016-04-23T02:44:48.340Z,4.51
2016-04-23T02:45:48.186Z,4.58
2016-04-23T02:46:48.142Z,4.52
2016-04-23T02:47:48.379Z,4.48
2016-04-23T02:48:48.147Z,4.55
2016-04-23T02:49:48.103Z,4.58
2016-04-23T02:50:48.120Z,4.45
2016-04-23T02:52:02.236Z,4.47
2016-04-23T02:52:48.126Z,4.48
2016-04-23T02:54:02.226Z,4.48
2016-04-23T02:55:48.134Z,4.48
2016-04-23T02:56:48.309Z,4.5
2016-04-23T02:57:48.108Z,4.44
2016-04-23T02:58:48.112Z,4.47
2016-04-23T02:59:48.114Z,4.48
2016-04-23T03:00:48.491Z,4.42
2016-04-23T03:01:48.104Z,4.48
2016-04-23T03:02:47.966Z,4.48
2016-04-23T03:03:48.094Z,4.48
2016-04-23T03:04:48.299Z,4.58
2016-04-23T03:05:48.115Z,4.59
2016-04-23T03:06:48.102Z,4.47
2016-04-23T03:07:48.026Z,4.47
2016-04-23T03:08:48.091Z,4.5
2016-04-23T03:09:48.501Z,4.47
2016-04-23T03:10:48.300Z,4.5
2016-04-23T03:11:48.318Z,4.6
2016-04-23T03:12:48.273Z,4.48
2016-04-23T03:13:48.074Z,4.62
2016-04-23T03:14:48.076Z,4.55
2016-04-23T03:15:48.094Z,4.51
2016-04-23T03:16:48.082Z,4.62
2016-04-23T03:17:48.522Z,4.54
2016-04-23T03:18:48.040Z,4.55
2016-04-23T03:19:48.074Z,4.54
2016-04-23T03:20:47.624Z,4.59
2016-04-23T03:21:48.673Z,4.54
2016-04-23T03:22:47.989Z,4.54
2016-04-23T03:23:47.834Z,4.54
2016-04-23T03:24:48.072Z,4.58
2016-04-23T03:25:48.261Z,4.54
2016-04-23T03:26:48.046Z,4.52
2016-04-23T03:27:48.690Z,4.54
2016-04-23T03:29:02.130Z,4.58
2016-04-23T03:29:48.055Z,4.6
2016-04-23T03:30:47.557Z,4.54
2016-04-23T03:31:48.060Z,4.55
2016-04-23T03:32:47.891Z,4.55
2016-04-23T03:33:48.268Z,4.59
2016-04-23T03:34:48.068Z,4.59
2016-04-23T03:35:48.024Z,4.55
2016-04-23T03:36:48.042Z,4.6
2016-04-23T03:37:48.044Z,4.58
2016-04-23T03:38:48.047Z,4.45
2016-04-23T03:39:48.441Z,4.59
2016-04-23T03:40:48.005Z,4.47
2016-04-23T03:41:48.007Z,4.47
2016-04-23T03:42:48.010Z,4.5
2016-04-23T03:43:48.014Z,4.51
2016-04-23T03:44:48.001Z,4.48
2016-04-23T03:45:48.457Z,4.44
2016-04-23T03:46:48.006Z,4.47
2016-04-23T03:47:48.056Z,4.47
2016-04-23T03:48:47.527Z,4.45
2016-04-23T03:49:48.014Z,4.45
2016-04-23T03:50:47.986Z,4.47
2016-04-23T03:51:48.020Z,4.52
2016-04-23T03:52:47.992Z,4.5
2016-04-23T03:53:47.978Z,4.45
2016-04-23T03:54:47.981Z,4.47
2016-04-23T03:55:48.018Z,4.48
2016-04-23T03:56:47.974Z,4.47
2016-04-23T03:57:47.977Z,4.45
2016-04-23T03:58:47.979Z,4.44
2016-04-23T03:59:48.186Z,4.48
2016-04-23T04:00:47.953Z,4.48
2016-04-23T04:01:47.535Z,4.48
2016-04-23T04:02:48.069Z,4.47
2016-04-23T04:03:48.165Z,4.44
2016-04-23T04:04:47.980Z,4.48
2016-04-23T04:05:47.483Z,4.59
2016-04-23T04:06:48.173Z,4.59
2016-04-23T04:07:47.973Z,4.59
2016-04-23T04:08:47.460Z,4.58
2016-04-23T04:09:47.962Z,4.58
2016-04-23T04:10:47.949Z,4.55
2016-04-23T04:11:47.984Z,4.63
2016-04-23T04:12:47.939Z,4.65
2016-04-23T04:13:47.973Z,4.7
2016-04-23T04:14:47.976Z,4.73
2016-04-23T04:15:47.931Z,4.63
2016-04-23T04:16:47.966Z,4.7
2016-04-23T04:17:47.953Z,4.69
2016-04-23T04:18:47.939Z,4.7
2016-04-23T04:19:47.786Z,4.8
2016-04-23T04:20:47.944Z,4.77
2016-04-23T04:21:48.166Z,4.78
2016-04-23T04:22:48.325Z,4.78
2016-04-23T04:24:02.016Z,4.77
2016-04-23T04:24:48.160Z,4.8
2016-04-23T04:26:02.021Z,4.8
2016-04-23T04:26:47.915Z,4.89
2016-04-23T04:27:47.932Z,4.84
2016-04-23T04:29:02.029Z,4.97
2016-04-23T04:29:47.907Z,4.92
2016-04-23T04:30:47.926Z,4.97
2016-04-23T04:31:47.679Z,4.97
2016-04-23T04:32:47.915Z,4.86
2016-04-23T04:33:47.918Z,4.99
2016-04-23T04:34:47.920Z,5.04
2016-04-23T04:35:47.923Z,4.97
2016-04-23T04:36:47.925Z,5.06
2016-04-23T04:37:48.131Z,4.92
2016-04-23T04:38:47.947Z,4.96
2016-04-23T04:39:47.903Z,5.03
2016-04-23T04:41:47.892Z,5.04
2016-04-23T04:42:47.911Z,5.07
2016-04-23T04:43:47.444Z,5.15
2016-04-23T04:44:48.088Z,5.09
2016-04-23T04:45:47.903Z,5.1
2016-04-23T04:46:47.906Z,5.2
2016-04-23T04:47:47.909Z,5.13
2016-04-23T04:48:47.895Z,5.13
2016-04-23T04:49:47.914Z,5.17
2016-04-23T04:50:48.150Z,5.12
2016-04-23T04:51:47.888Z,5.17
2016-04-23T04:52:47.921Z,5.25
2016-04-23T04:53:47.877Z,5.25
2016-04-23T04:54:47.880Z,5.25
2016-04-23T04:56:02.180Z,5.21
2016-04-23T04:57:48.107Z,5.38
2016-04-23T04:58:48.110Z,5.28
2016-04-23T04:59:48.081Z,5.45
2016-04-23T05:00:48.068Z,5.42
2016-04-23T05:01:47.899Z,5.43
2016-04-23T05:02:48.074Z,5.4
2016-04-23T05:03:47.936Z,5.48
2016-04-23T05:04:47.438Z,5.54
2016-04-23T05:05:47.895Z,5.48
2016-04-23T05:06:47.865Z,5.56
2016-04-23T05:07:47.885Z,5.54
2016-04-23T05:08:47.886Z,5.54
2016-04-23T05:09:47.858Z,5.65
2016-04-23T05:10:47.845Z,5.71
2016-04-23T05:11:47.864Z,5.71
2016-04-23T05:12:48.053Z,5.82
2016-04-23T05:13:47.884Z,5.76
2016-04-23T05:14:47.778Z,5.79
2016-04-23T05:15:47.875Z,5.81
2016-04-23T05:17:01.955Z,5.86
2016-04-23T05:18:47.883Z,5.97
2016-04-23T05:19:47.854Z,6.08
2016-04-23T05:20:47.856Z,6.04
2016-04-23T05:22:02.172Z,6.15
2016-04-23T05:22:47.908Z,6.12
2016-04-23T05:24:48.054Z,6.25
2016-04-23T05:25:48.073Z,6.18
2016-04-23T05:26:47.857Z,6.25
2016-04-23T05:27:47.360Z,6.25
2016-04-23T05:28:48.128Z,6.31
2016-04-23T05:29:47.896Z,6.36
2016-04-23T05:30:47.883Z,6.46
2016-04-23T05:31:48.104Z,6.46
2016-04-23T05:32:47.857Z,6.51
2016-04-23T05:33:47.876Z,6.56
2016-04-23T05:34:47.863Z,6.55
2016-04-23T05:35:47.865Z,6.64
2016-04-23T05:36:47.899Z,6.67
2016-04-23T05:37:47.902Z,6.73
2016-04-23T05:38:47.904Z,6.74
2016-04-23T05:39:48.111Z,6.79
2016-04-23T05:40:47.848Z,6.84
2016-04-23T05:41:47.867Z,6.88
2016-04-23T05:42:48.119Z,6.8
2016-04-23T05:44:01.965Z,6.89
2016-04-23T05:44:47.890Z,6.92
2016-04-23T05:46:01.955Z,6.91
2016-04-23T05:47:02.395Z,7.02
2016-04-23T05:47:47.866Z,7.06
2016-04-23T05:48:47.854Z,7.15
2016-04-23T05:49:47.872Z,7.17
2016-04-23T05:50:48.062Z,7.25
2016-04-23T05:51:47.878Z,7.2
2016-04-23T05:53:02.224Z,7.34
2016-04-23T05:53:48.086Z,7.32
2016-04-23T05:54:48.072Z,7.45
2016-04-23T05:55:47.872Z,7.53
2016-04-23T05:56:48.078Z,7.55
2016-04-23T05:57:47.877Z,7.5
2016-04-23T05:58:47.865Z,7.6
2016-04-23T05:59:47.415Z,7.6
2016-04-23T06:01:01.964Z,7.63
2016-04-23T06:01:47.873Z,7.68
2016-04-23T06:02:47.407Z,7.72
2016-04-23T06:03:47.128Z,7.79
2016-04-23T06:04:48.116Z,7.87
2016-04-23T06:05:48.087Z,7.75
2016-04-23T06:06:48.105Z,7.87
2016-04-23T06:07:48.093Z,7.86
2016-04-23T06:09:48.129Z,7.77
2016-04-23T06:10:47.912Z,7.89
2016-04-23T06:12:47.668Z,8.01
2016-04-23T06:14:47.892Z,8
2016-04-23T06:15:48.333Z,8.07
2016-04-23T06:16:47.429Z,8.15
2016-04-23T06:18:01.994Z,8.07
2016-04-23T06:18:47.950Z,8.05
2016-04-23T06:19:47.468Z,8.16
2016-04-23T06:21:48.350Z,8.19
2016-04-23T06:22:47.961Z,8.23
2016-04-23T06:24:47.482Z,8.28
2016-04-23T06:26:02.000Z,8.29
2016-04-23T06:26:48.158Z,8.3
2016-04-23T06:27:47.427Z,8.3
2016-04-23T06:28:47.914Z,8.33
2016-04-23T06:30:48.185Z,8.2
2016-04-23T06:31:47.969Z,8.36
2016-04-23T06:32:47.941Z,8.36
2016-04-23T06:33:47.927Z,8.34
2016-04-23T06:34:48.165Z,8.3
2016-04-23T06:37:02.030Z,8.48
2016-04-23T06:37:47.955Z,8.38
2016-04-23T06:38:47.941Z,8.52
2016-04-23T06:40:02.054Z,8.4
2016-04-23T06:40:48.228Z,8.43
2016-04-23T06:41:47.934Z,8.41
2016-04-23T06:42:48.139Z,8.41
2016-04-23T06:43:47.470Z,8.45
2016-04-23T06:44:47.957Z,8.41
2016-04-23T06:45:48.195Z,8.5
2016-04-23T06:46:47.962Z,8.48
2016-04-23T06:47:47.981Z,8.55
2016-04-23T06:48:47.953Z,8.52
2016-04-23T06:49:48.174Z,8.62
2016-04-23T06:50:47.973Z,8.62
2016-04-23T06:51:48.038Z,8.68
2016-04-23T06:52:47.995Z,8.66
2016-04-23T06:53:48.014Z,8.81
2016-04-23T06:55:02.281Z,8.8
2016-04-23T06:55:47.237Z,8.83
2016-04-23T06:56:47.489Z,8.76
2016-04-23T06:57:47.992Z,8.89
2016-04-23T06:58:48.027Z,8.8
2016-04-23T06:59:48.029Z,8.92
2016-04-23T07:00:48.266Z,8.91
2016-04-23T07:01:48.207Z,9.08
2016-04-23T07:02:48.006Z,8.96
2016-04-23T07:03:48.102Z,9.05
2016-04-23T07:04:47.996Z,9.1
2016-04-23T07:06:48.016Z,9.13
2016-04-23T07:07:48.425Z,9.14
2016-04-23T07:09:02.132Z,9.2
2016-04-23T07:10:02.338Z,9.2
2016-04-23T07:10:47.574Z,9.18
2016-04-23T07:11:48.046Z,9.36
2016-04-23T07:12:48.267Z,9.28
2016-04-23T07:14:02.567Z,9.31
2016-04-23T07:14:48.038Z,9.32
2016-04-23T07:15:48.259Z,9.33
2016-04-23T07:16:48.043Z,9.4
2016-04-23T07:19:02.174Z,9.48
2016-04-23T07:19:48.270Z,9.54
2016-04-23T07:20:48.070Z,9.47
2016-04-23T07:22:48.075Z,9.57
2016-04-23T07:23:48.062Z,9.68
2016-04-23T07:25:02.112Z,9.64
2016-04-23T07:25:48.302Z,9.71
2016-04-23T07:26:48.133Z,9.65
2016-04-23T07:27:48.104Z,9.71
2016-04-23T07:28:48.310Z,9.76
2016-04-23T07:29:48.094Z,9.83
2016-04-23T07:30:48.128Z,9.84
2016-04-23T07:31:48.083Z,9.89
2016-04-23T07:32:48.118Z,9.94
2016-04-23T07:33:48.371Z,9.96
2016-04-23T07:34:48.357Z,10.08
2016-04-23T07:35:48.126Z,10.18
2016-04-23T07:36:47.879Z,10.14
2016-04-23T07:37:47.663Z,10.2
2016-04-23T07:38:48.181Z,10.33
2016-04-23T07:39:48.168Z,10.29
2016-04-23T07:41:02.873Z,10.55
2016-04-23T07:42:02.674Z,10.55
2016-04-23T07:42:47.783Z,10.66
2016-04-23T07:43:48.471Z,10.73
2016-04-23T07:44:48.330Z,10.85
2016-04-23T07:45:48.611Z,10.74
2016-04-23T07:46:48.417Z,10.84
2016-04-23T07:47:48.420Z,10.91
2016-04-23T07:49:02.533Z,10.96
2016-04-23T07:49:48.490Z,11.06
2016-04-23T07:50:48.680Z,10.96
2016-04-23T07:52:48.793Z,11.11
2016-04-23T07:53:48.552Z,11.04
2016-04-23T07:54:48.591Z,11.07
2016-04-23T07:55:48.553Z,11.14
2016-04-23T07:56:48.074Z,11.19
2016-04-23T07:57:48.548Z,11.18
2016-04-23T07:58:48.803Z,11.18
2016-04-23T07:59:48.619Z,11.27
2016-04-23T08:00:48.578Z,11.27
2016-04-23T08:01:48.659Z,11.28
2016-04-23T08:02:48.646Z,11.32
2016-04-23T08:04:02.698Z,11.29
2016-04-23T08:04:48.685Z,11.35
2016-04-23T08:05:48.861Z,11.49
2016-04-23T08:06:49.035Z,11.47
2016-04-23T08:07:48.633Z,11.6
2016-04-23T08:08:48.855Z,11.57
2016-04-23T08:09:48.841Z,11.72
2016-04-23T08:10:48.657Z,11.62
2016-04-23T08:11:48.659Z,11.75
2016-04-23T08:12:48.662Z,11.73
2016-04-23T08:13:48.681Z,11.79
2016-04-23T08:14:48.856Z,11.76
2016-04-23T08:15:48.905Z,11.85
2016-04-23T08:16:48.673Z,11.85
2016-04-23T08:17:48.707Z,11.85
2016-04-23T08:18:48.539Z,11.75
2016-04-23T08:19:48.900Z,11.76
2016-04-23T08:20:48.715Z,11.78
2016-04-23T08:21:48.749Z,11.78
2016-04-23T08:22:48.752Z,11.83
2016-04-23T08:23:48.942Z,11.79
2016-04-23T08:24:48.960Z,11.72
2016-04-23T08:25:48.761Z,11.75
2016-04-23T08:26:48.763Z,11.85
2016-04-23T08:27:48.782Z,11.76
2016-04-23T08:28:48.752Z,11.76
2016-04-23T08:29:48.776Z,11.82
2016-04-23T08:30:48.793Z,11.72
2016-04-23T08:31:48.797Z,11.57
2016-04-23T08:33:48.818Z,11.62
2016-04-23T08:34:48.804Z,11.54
2016-04-23T08:35:48.823Z,11.62
2016-04-23T08:36:49.014Z,11.69
2016-04-23T08:37:49.453Z,11.65
2016-04-23T08:38:49.035Z,11.7
2016-04-23T08:40:02.928Z,11.61
2016-04-23T08:40:49.055Z,11.69
2016-04-23T08:41:48.559Z,11.55
2016-04-23T08:42:48.873Z,11.55
2016-04-23T08:43:48.782Z,11.57
2016-04-23T08:44:48.895Z,11.55
2016-04-23T08:45:48.866Z,11.57
2016-04-23T08:46:49.071Z,11.42
2016-04-23T08:47:48.886Z,11.33
2016-04-23T08:48:48.437Z,11.33
2016-04-23T08:49:48.892Z,11.29
2016-04-23T08:50:48.894Z,11.32
2016-04-23T08:51:48.742Z,11.42
2016-04-23T08:52:49.150Z,11.32
2016-04-23T08:53:49.715Z,11.37
2016-04-23T08:54:49.124Z,11.43
2016-04-23T08:56:03.221Z,11.39
2016-04-23T08:56:48.958Z,11.57
2016-04-23T08:57:49.180Z,11.6
2016-04-23T08:58:48.963Z,11.49
2016-04-23T08:59:49.216Z,11.57
2016-04-23T09:00:48.999Z,11.37
2016-04-23T09:02:49.615Z,11.55
2016-04-23T09:03:49.226Z,11.58
2016-04-23T09:04:48.526Z,11.57
2016-04-23T09:05:48.232Z,11.58
2016-04-23T09:06:49.407Z,11.6
2016-04-23T09:07:49.034Z,11.61
2016-04-23T09:08:49.053Z,11.62
2016-04-23T09:09:49.273Z,11.65
2016-04-23T09:10:49.433Z,11.72
2016-04-23T09:11:49.061Z,11.83
2016-04-23T09:12:48.532Z,11.79
2016-04-23T09:13:49.050Z,11.91
2016-04-23T09:14:49.037Z,11.98
2016-04-23T09:15:49.462Z,12.09
2016-04-23T09:16:49.042Z,12.12
2016-04-23T09:18:03.139Z,12.24
2016-04-23T09:19:03.345Z,12.37
2016-04-23T09:19:49.067Z,12.39
2016-04-23T09:21:03.178Z,12.5
2016-04-23T09:22:03.181Z,12.53
2016-04-23T09:22:49.121Z,12.52
2016-04-23T09:23:49.327Z,12.72
2016-04-23T09:24:49.127Z,12.71
2016-04-23T09:25:49.130Z,12.83
2016-04-23T09:26:49.149Z,12.86
2016-04-23T09:27:49.104Z,12.9
2016-04-23T09:28:49.199Z,12.97
2016-04-23T09:29:49.375Z,13.01
2016-04-23T09:31:03.784Z,13.05
2016-04-23T09:32:03.271Z,13.15
2016-04-23T09:32:48.930Z,13.07
2016-04-23T09:34:03.573Z,13.23
2016-04-23T09:34:50.982Z,13.2
2016-04-23T09:35:49.173Z,13.3
2016-04-23T09:36:49.190Z,13.32
2016-04-23T09:37:49.037Z,13.32
2016-04-23T09:38:49.211Z,13.33
2016-04-23T09:39:49.276Z,13.54
2016-04-23T09:40:49.217Z,13.6
2016-04-23T09:41:49.423Z,13.45
2016-04-23T09:42:49.253Z,13.55
2016-04-23T09:43:49.147Z,13.45
2016-04-23T09:44:50.134Z,13.55
2016-04-23T09:45:49.261Z,13.48
2016-04-23T09:46:49.248Z,13.55
2016-04-23T09:47:49.298Z,13.63
2016-04-23T09:48:49.692Z,13.45
2016-04-23T09:49:49.289Z,13.44
2016-04-23T09:51:48.872Z,13.51
2016-04-23T09:52:49.311Z,13.52
2016-04-23T09:53:49.330Z,13.44
2016-04-23T09:54:49.349Z,13.55
2016-04-23T09:56:04.538Z,13.46
2016-04-23T09:56:49.541Z,13.57
2016-04-23T09:57:49.372Z,13.48
2016-04-23T09:58:49.624Z,13.54
2016-04-23T09:59:49.455Z,13.48
2016-04-23T10:00:49.396Z,13.36
2016-04-23T10:01:49.414Z,13.38
2016-04-23T10:02:49.402Z,13.57
2016-04-23T10:03:49.404Z,13.3
2016-04-23T10:04:49.625Z,13.39
2016-04-23T10:05:49.534Z,13.41
2016-04-23T10:07:49.462Z,13.41
2016-04-23T10:08:49.136Z,13.45
2016-04-23T10:09:49.451Z,13.46
2016-04-23T10:10:49.470Z,13.39
2016-04-23T10:11:49.331Z,13.44
2016-04-23T10:12:50.131Z,13.41
2016-04-23T10:13:49.540Z,13.44
2016-04-23T10:14:49.730Z,13.49
2016-04-23T10:15:49.623Z,13.57
2016-04-23T10:16:49.548Z,13.7
2016-04-23T10:17:49.863Z,13.54
2016-04-23T10:18:49.522Z,13.78
2016-04-23T10:19:49.759Z,13.78
2016-04-23T10:20:49.778Z,13.82
2016-04-23T10:21:49.764Z,13.87
2016-04-23T10:22:49.141Z,13.99
2016-04-23T10:23:50.976Z,14.04
2016-04-23T10:24:49.776Z,13.89
2016-04-23T10:25:49.794Z,14.04
2016-04-23T10:26:50.047Z,13.97
2016-04-23T10:27:49.627Z,13.96
2016-04-23T10:28:49.614Z,13.96
2016-04-23T10:29:49.133Z,14.02
2016-04-23T10:30:49.682Z,14.06
2016-04-23T10:31:49.185Z,14.04
2016-04-23T10:32:49.907Z,14.02
2016-04-23T10:33:49.675Z,14.06
2016-04-23T10:34:50.552Z,14.14
2016-04-23T10:35:49.712Z,14.04
2016-04-23T10:36:49.714Z,14.07
2016-04-23T10:37:49.248Z,14.07
2016-04-23T10:38:49.954Z,13.84
2016-04-23T10:39:49.972Z,13.88
2016-04-23T10:40:49.756Z,13.87
2016-04-23T10:41:49.743Z,13.89
2016-04-23T10:42:49.965Z,13.85
2016-04-23T10:43:49.998Z,13.89
2016-04-23T10:44:49.782Z,13.92
2016-04-23T10:45:49.770Z,13.91
2016-04-23T10:46:49.288Z,13.92
2016-04-23T10:47:49.775Z,13.89
2016-04-23T10:48:49.856Z,13.99
2016-04-23T10:49:50.578Z,14
2016-04-23T10:50:49.831Z,13.99
2016-04-23T10:51:50.083Z,14.14
2016-04-23T10:52:49.883Z,14.24
2016-04-23T10:54:50.092Z,14.32
2016-04-23T10:56:03.969Z,14.39
2016-04-23T10:56:49.908Z,14.45
2016-04-23T10:57:49.880Z,14.54
2016-04-23T10:58:49.883Z,14.6
2016-04-23T10:59:50.105Z,14.52
2016-04-23T11:00:50.122Z,14.58
2016-04-23T11:01:49.907Z,14.68
2016-04-23T11:02:49.940Z,14.58
2016-04-23T11:03:49.443Z,14.77
2016-04-23T11:04:49.993Z,14.61
2016-04-23T11:05:50.168Z,14.54
2016-04-23T11:06:50.796Z,14.33
2016-04-23T11:07:50.173Z,14.37
2016-04-23T11:08:50.004Z,14.33
2016-04-23T11:09:50.021Z,14.46
2016-04-23T11:10:50.431Z,14.28
2016-04-23T11:11:50.465Z,14.35
2016-04-23T11:12:50.015Z,14.52
2016-04-23T11:13:50.674Z,14.55
2016-04-23T11:15:04.378Z,14.58
2016-04-23T11:15:50.256Z,14.69
2016-04-23T11:16:50.056Z,14.64
2016-04-23T11:17:50.059Z,14.73
2016-04-23T11:18:50.281Z,14.78
2016-04-23T11:19:50.596Z,14.8
2016-04-23T11:20:50.114Z,14.78
2016-04-23T11:21:50.336Z,14.89
2016-04-23T11:22:53.353Z,14.91
2016-04-23T11:23:50.137Z,14.69
2016-04-23T11:24:50.015Z,14.51
2016-04-23T11:25:50.346Z,14.61
2016-04-23T11:26:50.177Z,14.61
2016-04-23T11:27:49.727Z,14.68
2016-04-23T11:28:50.167Z,14.75
2016-04-23T11:29:51.403Z,14.84
2016-04-23T11:31:04.500Z,14.83
2016-04-23T11:31:50.488Z,14.83
2016-04-23T11:32:50.458Z,14.94
2016-04-23T11:33:50.227Z,14.84
2016-04-23T11:34:50.136Z,15.01
2016-04-23T11:35:50.233Z,15.02
2016-04-23T11:36:50.251Z,15.1
2016-04-23T11:37:50.300Z,15.19
2016-04-23T11:38:51.147Z,15.2
2016-04-23T11:39:50.305Z,15.13
2016-04-23T11:41:04.387Z,15.29
2016-04-23T11:41:50.514Z,15.29
2016-04-23T11:42:50.329Z,15.25
2016-04-23T11:44:04.426Z,15.13
2016-04-23T11:44:50.538Z,15.19
2016-04-23T11:46:50.590Z,15.31
2016-04-23T11:47:50.358Z,15.23
2016-04-23T11:48:50.393Z,14.94
2016-04-23T11:49:50.395Z,14.86
2016-04-23T11:51:05.085Z,14.91
2016-04-23T11:51:50.401Z,14.89
2016-04-23T11:52:50.420Z,14.95
2016-04-23T11:53:50.422Z,15.02
2016-04-23T11:54:50.455Z,15.02
2016-04-23T11:55:50.473Z,15.14
2016-04-23T11:56:50.492Z,15.17
2016-04-23T11:57:50.464Z,14.94
2016-04-23T11:58:50.481Z,15.02
2016-04-23T11:59:50.500Z,15.03
2016-04-23T12:00:50.487Z,14.99
2016-04-23T12:01:50.537Z,15.06
2016-04-23T12:02:50.524Z,15.01
2016-04-23T12:03:50.370Z,14.96
2016-04-23T12:05:04.654Z,14.95
2016-04-23T12:05:50.547Z,14.81
2016-04-23T12:06:50.566Z,14.64
2016-04-23T12:07:50.569Z,14.39
2016-04-23T12:08:50.571Z,14.22
2016-04-23T12:09:50.777Z,14.25
2016-04-23T12:10:50.624Z,14.12
2016-04-23T12:11:50.798Z,14.12
2016-04-23T12:12:50.629Z,14.03
2016-04-23T12:13:50.646Z,14.02
2016-04-23T12:14:50.649Z,13.95
2016-04-23T12:15:51.059Z,13.88
2016-04-23T12:16:50.640Z,13.88
2016-04-23T12:17:50.704Z,13.75
2016-04-23T12:18:51.114Z,13.73
2016-04-23T12:19:50.725Z,13.64
2016-04-23T12:20:51.416Z,13.52
2016-04-23T12:21:50.684Z,13.54
2016-04-23T12:22:50.734Z,13.49
2016-04-23T12:23:50.705Z,13.29
2016-04-23T12:24:50.786Z,13.3
2016-04-23T12:25:50.758Z,13.22
2016-04-23T12:26:50.932Z,13.22
2016-04-23T12:27:50.795Z,13.2
2016-04-23T12:28:51.203Z,13.12
2016-04-23T12:29:50.799Z,13.08
2016-04-23T12:30:51.005Z,13.04
2016-04-23T12:31:50.805Z,13.07
2016-04-23T12:32:50.823Z,12.9
2016-04-23T12:33:50.858Z,12.87
2016-04-23T12:34:50.813Z,12.89
2016-04-23T12:35:50.894Z,12.85
2016-04-23T12:36:51.006Z,12.75
2016-04-23T12:37:50.883Z,12.71
2016-04-23T12:39:50.888Z,12.56
2016-04-23T12:40:50.876Z,12.54
2016-04-23T12:41:50.879Z,12.5
2016-04-23T12:42:50.866Z,12.47
2016-04-23T12:43:50.884Z,12.41
2016-04-23T12:44:50.871Z,12.37
2016-04-23T12:45:50.858Z,12.38
2016-04-23T12:46:50.877Z,12.31
2016-04-23T12:47:51.098Z,12.16
2016-04-23T12:48:50.929Z,12.12
2016-04-23T12:49:50.806Z,12.12
2016-04-23T12:50:52.043Z,12.13
2016-04-23T12:51:50.671Z,12.07
2016-04-23T12:52:51.112Z,12.04
2016-04-23T12:53:51.161Z,12.04
2016-04-23T12:55:05.898Z,11.91
2016-04-23T12:55:50.932Z,11.91
2016-04-23T12:56:50.934Z,11.86
2016-04-23T12:57:50.937Z,11.85
2016-04-23T12:58:51.346Z,11.79
2016-04-23T12:59:50.974Z,11.7
2016-04-23T13:00:50.961Z,11.54
2016-04-23T13:01:51.261Z,11.73
2016-04-23T13:03:19.357Z,11.73
2016-04-23T13:03:51.188Z,11.62
2016-04-23T13:04:51.877Z,11.55
2016-04-23T13:05:50.943Z,11.54
2016-04-23T13:07:10.242Z,11.46
2016-04-23T13:07:51.010Z,11.52
2016-04-23T13:08:50.997Z,11.44
2016-04-23T13:09:51.062Z,11.37
2016-04-23T13:10:51.049Z,11.29
2016-04-23T13:11:51.286Z,11.33
2016-04-23T13:12:51.055Z,11.29
2016-04-23T13:13:51.339Z,11.28
2016-04-23T13:14:51.186Z,11.36
2016-04-23T13:15:50.985Z,11.29
2016-04-23T13:16:52.049Z,11.32
2016-04-23T13:17:51.646Z,11.33
2016-04-23T13:18:52.055Z,11.19
2016-04-23T13:19:52.777Z,11.17
2016-04-23T13:20:52.201Z,11.27
2016-04-23T13:21:51.006Z,11.07
2016-04-23T13:22:51.180Z,11.07
2016-04-23T13:23:51.090Z,11.02
2016-04-23T13:24:51.170Z,11.02
2016-04-23T13:26:05.392Z,10.94
2016-04-23T13:26:51.301Z,10.89
2016-04-23T13:28:51.180Z,10.82
2016-04-23T13:29:50.652Z,10.66
2016-04-23T13:30:51.483Z,10.71
2016-04-23T13:31:51.173Z,10.73
2016-04-23T13:32:51.222Z,10.64
2016-04-23T13:33:51.289Z,10.64
2016-04-23T13:35:05.447Z,10.48
2016-04-23T13:35:53.777Z,10.44
2016-04-23T13:36:50.890Z,10.42
2016-04-23T13:37:51.392Z,10.33
2016-04-23T13:38:51.176Z,10.29
2016-04-23T13:39:51.351Z,10.27
2016-04-23T13:40:51.776Z,10.18
2016-04-23T13:42:51.469Z,10.23